Item Display Status Humidity-temperature Sensor

Elevation Above Sea Level: 3 m

 

Deployed Sensor

  • Serial Number: 61378462
  • NDBC Property Number: 39622
  • Start Date: 3/6/2015 (13:37:55 Z)
  • End Date: 3/21/2016 (15:24:00 Z)
Relative Humidity [%]     6 entries per hour
Showing data from 3/21/2016 (11:00:00 Z) to 3/20/2016 (00:00:01 Z)
Previous Next [ Day | 3-Days | 7-Days ]
First Last
Prev [ Day | 3-Days | 7-Days ] Next
First Last

Start Time:     :
End Time:     :     
Time (in GMT) :00 :50 :40 :30 :20 :10
Previous Next [ Day | 3-Days | 7-Days ]
First Last
Prev [ Day | 3-Days | 7-Days ] Next
First Last


123 => good data
MM => data is determined as missing
-- => data not received/configured
Back to Top Back to Top
3/21/2016 11:00 to 10:10 77.44 78.65 79.23 79.07 77.96 78.71
3/21/2016 10:00 to 9:10 78.29 78.41 78.65 78.95 78.41 77.62
3/21/2016 09:00 to 8:10 81.17 80.08 79.62 79.94 79.98 79.88
3/21/2016 08:00 to 7:10 80.28 80.18 79.60 79.84 79.72 79.50
3/21/2016 07:00 to 6:10 78.85 79.56 79.23 79.35 78.75 78.65
3/21/2016 06:00 to 5:10 78.87 79.21 78.95 79.13 79.01 78.49
3/21/2016 05:00 to 4:10 79.11 78.65 78.41 78.31 79.64 79.78
3/21/2016 04:00 to 3:10 82.00 82.24 81.43 81.03 81.94 82.78
3/21/2016 03:00 to 2:10 81.69 80.24 80.02 79.90 79.86 80.04
3/21/2016 02:00 to 1:10 79.96 79.84 79.23 79.70 79.58 79.90
3/21/2016 01:00 to 0:10 79.72 79.38 79.15 78.19 79.23 79.74
3/21/2016 00:00 to 23:10 78.95 79.25 79.40 79.80 80.32 80.12
3/20/2016 23:00 to 22:10 80.26 79.17 79.62 78.99 78.29 78.31
3/20/2016 22:00 to 21:10 80.16 78.89 78.47 77.34 76.27 76.15
3/20/2016 21:00 to 20:10 74.68 74.98 75.08 74.92 74.03 73.47
3/20/2016 20:00 to 19:10 75.32 74.68 75.46 75.46 75.30 74.33
3/20/2016 19:00 to 18:10 74.25 76.23 75.73 75.44 76.67 76.25
3/20/2016 18:00 to 17:10 76.94 76.98 77.04 77.18 77.66 77.70
3/20/2016 17:00 to 16:10 77.38 78.17 79.90 79.86 79.68 79.38
3/20/2016 16:00 to 15:10 79.40 80.79 80.60 80.56 82.34 81.77
3/20/2016 15:00 to 14:10 82.44 82.24 82.36 81.98 83.71 84.01
3/20/2016 14:00 to 13:10 84.33 85.08 84.96 83.23 82.82 82.14
3/20/2016 13:00 to 12:10 81.94 81.55 81.23 81.69 81.94 81.15
3/20/2016 12:00 to 11:10 81.67 82.22 80.83 79.03 80.71 79.62
3/20/2016 11:00 to 10:10 81.53 81.31 81.94 80.32 80.22 80.77
3/20/2016 10:00 to 9:10 80.20 80.12 79.70 80.10 79.74 79.54
3/20/2016 09:00 to 8:10 78.59 78.71 79.40 80.50 79.70 79.52
3/20/2016 08:00 to 7:10 80.95 80.81 80.85 80.63 81.49 84.96
3/20/2016 07:00 to 6:10 84.64 84.09 80.87 80.36 79.52 79.62
3/20/2016 06:00 to 5:10 79.98 81.29 81.27 82.04 82.12 81.29
3/20/2016 05:00 to 4:10 81.55 81.81 81.96 81.33 79.52 79.74
3/20/2016 04:00 to 3:10 79.54 80.12 80.85 80.24 77.86 78.47
3/20/2016 03:00 to 2:10 77.60 77.26 77.66 78.04 78.43 79.21
3/20/2016 02:00 to 1:10 78.95 78.95 78.39 77.84 78.00 77.46
3/20/2016 01:00 to 0:10 77.44 77.28 77.94 78.67 78.31 78.83

 

 

 

Air Temperature [°C]     6 entries per hour
Showing data from 3/21/2016 (11:00:00 Z) to 3/20/2016 (00:00:01 Z)
Previous Next [ Day | 3-Days | 7-Days ]
First Last
Prev [ Day | 3-Days | 7-Days ] Next
First Last

Start Time:     :
End Time:     :     
Time (in GMT) :00 :50 :40 :30 :20 :10
Previous Next [ Day | 3-Days | 7-Days ]
First Last
Prev [ Day | 3-Days | 7-Days ] Next
First Last


123 => good data
MM => data is determined as missing
-- => data not received/configured
Back to Top Back to Top
3/21/2016 11:00 to 10:10 27.28 27.42 27.49 27.33 27.32 27.37
3/21/2016 10:00 to 9:10 27.44 27.40 27.37 27.42 27.52 27.48
3/21/2016 09:00 to 8:10 27.23 27.39 27.41 27.59 27.35 27.41
3/21/2016 08:00 to 7:10 27.30 27.57 27.38 27.55 27.55 27.54
3/21/2016 07:00 to 6:10 27.64 27.57 27.48 27.63 27.70 27.63
3/21/2016 06:00 to 5:10 27.62 27.68 27.65 27.64 27.57 27.57
3/21/2016 05:00 to 4:10 27.54 27.55 27.82 27.60 27.67 27.83
3/21/2016 04:00 to 3:10 27.45 27.48 27.44 27.59 27.37 27.45
3/21/2016 03:00 to 2:10 27.53 27.52 27.47 27.45 27.46 27.41
3/21/2016 02:00 to 1:10 27.47 27.46 27.47 27.39 27.24 27.45
3/21/2016 01:00 to 0:10 27.40 27.48 27.52 27.51 27.67 27.60
3/21/2016 00:00 to 23:10 27.74 27.81 27.78 27.67 27.74 27.96
3/20/2016 23:00 to 22:10 27.78 27.94 27.83 27.98 28.03 27.86
3/20/2016 22:00 to 21:10 27.63 27.92 27.67 28.01 28.24 28.14
3/20/2016 21:00 to 20:10 28.19 28.11 28.19 28.27 28.39 28.37
3/20/2016 20:00 to 19:10 28.21 28.26 28.10 28.21 28.29 28.35
3/20/2016 19:00 to 18:10 28.22 28.09 28.12 28.17 28.12 28.20
3/20/2016 18:00 to 17:10 28.11 28.02 28.04 28.01 28.00 28.14
3/20/2016 17:00 to 16:10 28.01 27.95 27.77 27.94 27.75 27.70
3/20/2016 16:00 to 15:10 27.58 27.74 27.67 27.57 27.49 27.73
3/20/2016 15:00 to 14:10 27.34 27.43 27.33 27.32 27.18 27.29
3/20/2016 14:00 to 13:10 27.19 27.22 26.81 27.40 27.40 27.34
3/20/2016 13:00 to 12:10 27.31 27.32 27.35 27.28 27.34 27.34
3/20/2016 12:00 to 11:10 27.27 27.38 27.77 27.53 27.47 27.46
3/20/2016 11:00 to 10:10 27.61 27.29 27.34 27.53 27.56 27.58
3/20/2016 10:00 to 9:10 27.65 27.64 27.62 27.59 27.72 27.71
3/20/2016 09:00 to 8:10 27.73 27.63 27.67 27.78 27.76 27.67
3/20/2016 08:00 to 7:10 27.82 27.72 27.70 27.73 27.62 27.09
3/20/2016 07:00 to 6:10 27.03 26.86 27.74 27.87 27.78 27.68
3/20/2016 06:00 to 5:10 27.70 27.65 27.72 27.80 27.70 27.72
3/20/2016 05:00 to 4:10 27.71 27.57 27.61 27.55 27.80 27.72
3/20/2016 04:00 to 3:10 27.83 27.79 27.67 27.78 27.88 27.69
3/20/2016 03:00 to 2:10 28.00 27.89 28.06 27.80 27.87 27.90
3/20/2016 02:00 to 1:10 27.75 27.96 27.82 27.75 27.85 27.79
3/20/2016 01:00 to 0:10 27.81 27.76 27.79 27.76 27.71 27.73